Corky — WDC3366 — position and weather

sailwx.info

Track history (hours):
 
Tides and Currents Weather Stations Pressure Air Temp Water Temp Dewpoint Dewpoint Depression Visibility Wind Speed Wind Dir Waves Ship Positions

Corky

Owner: Gulf South Marine Transportation, Inc., New Orleans, LA. More information available from US FCC via Universal Licensing System and Coast Guard Vessel Documentation Center.

Last reported at 2017-Sep-21 09:09 UTC. Time now 2017-Sep-26 06:00 UTC.
Position N 29°50' W 091°60'.

Length 18 m; draft 3.3 m.

Type: Tow > 200 m length. MMSI: 367006780.

Date/timePositionNaut miles runAvg speedWind from/ knotsBaromVisibWave heightAir tempDewpointWater temp
2017-Sep-21 09:09N 29°50' W 091°60'1 4.3
2017-Sep-21 08:58N 29°49' W 092°01'2 4.2
2017-Sep-21 08:30N 29°49' W 092°03'2 4.0
2017-Sep-21 08:00N 29°48' W 092°05'2 3.6
2017-Sep-21 07:30N 29°47' W 092°07'2 3.3
2017-Sep-21 07:00N 29°47' W 092°09'2 4.4
2017-Sep-21 06:30N 29°47' W 092°11'2 4.0
2017-Sep-21 06:00N 29°48' W 092°13'2 4.7
2017-Sep-21 05:30N 29°48' W 092°16'3 4.0
2017-Sep-21 04:52N 29°50' W 092°18'39 3.6
2017-Sep-20 18:00N 29°56' W 093°03'1 1.4
2017-Sep-20 17:11N 29°56' W 093°04'0 0.2
2017-Sep-20 17:00N 29°56' W 093°04'0 0.1
2017-Sep-20 14:00N 29°56' W 093°04'1 2.0
2017-Sep-20 13:30N 29°56' W 093°05'1 1.5
2017-Sep-20 13:00N 29°56' W 093°06'2 3.6
2017-Sep-20 12:31N 29°56' W 093°08'2 3.5
2017-Sep-20 12:01N 29°57' W 093°10'2 3.9
2017-Sep-20 11:30N 29°58' W 093°12'2 3.6
2017-Sep-20 11:00N 29°60' W 093°13'2 3.2
2017-Sep-20 10:30N 30°01' W 093°14'1 2.2
2017-Sep-20 10:00N 30°02' W 093°15'2 3.2
2017-Sep-20 09:30N 30°03' W 093°16'1 2.9
2017-Sep-20 09:00N 30°04' W 093°16'1 3.0
2017-Sep-20 08:30N 30°05' W 093°18'1 1.8
2017-Sep-20 08:00N 30°06' W 093°18'0 0.1
2017-Sep-20 07:30N 30°06' W 093°18'2 3.3
2017-Sep-20 07:00N 30°05' W 093°20'2 4.6
2017-Sep-20 06:30N 30°04' W 093°22'2 3.1
2017-Sep-20 06:00N 30°04' W 093°24'2 4.5
2017-Sep-20 05:30N 30°04' W 093°26'2 4.3
2017-Sep-20 05:00N 30°04' W 093°29'80 3.6
2017-Sep-19 06:41N 29°30' W 094°52'1 5.3
2017-Sep-19 06:26N 29°31' W 094°53'2 5.1
2017-Sep-19 06:00N 29°33' W 094°55'2 4.9
2017-Sep-19 05:30N 29°35' W 094°56'3 5.1
2017-Sep-19 05:00N 29°37' W 094°58'3 6.0
2017-Sep-19 04:30N 29°40' W 094°59'3 5.8
2017-Sep-19 04:00N 29°42' W 095°01'3 5.0
2017-Sep-19 03:29N 29°44' W 095°03'3 1.0
2017-Sep-19 00:14N 29°46' W 095°06'0 0.2
2017-Sep-18 23:40N 29°46' W 095°06'1 3.6
2017-Sep-18 23:28N 29°46' W 095°05'3 6.6
2017-Sep-18 23:00N 29°44' W 095°08'2 2.2
2017-Sep-18 22:11N 29°45' W 095°10'1 6.1
2017-Sep-18 21:59N 29°44' W 095°09'4 0.1
2017-Sep-17 14:13N 29°46' W 095°05'1 3.1
2017-Sep-17 14:00N 29°45' W 095°04'3 4.2
2017-Sep-17 13:22N 29°44' W 095°02'1 3.4
2017-Sep-17 13:00N 29°43' W 095°01'2 4.6
2017-Sep-17 12:30N 29°41' W 094°59'3 5.2
2017-Sep-17 12:00N 29°39' W 094°58'3 5.3
2017-Sep-17 11:30N 29°36' W 094°57'  
2017-Sep-15 02:15N 29°30' W 094°52'1 5.6
2017-Sep-15 01:59N 29°31' W 094°53'3 5.4
2017-Sep-15 01:30N 29°33' W 094°55'3 5.3
2017-Sep-15 01:00N 29°35' W 094°56'3 5.3
2017-Sep-15 00:30N 29°38' W 094°58'3 5.9
2017-Sep-15 00:00N 29°40' W 094°59'3 5.8
2017-Sep-14 23:30N 29°42' W 095°01'3 5.1
2017-Sep-14 23:00N 29°44' W 095°03'3 0.5
2017-Sep-14 17:55N 29°46' W 095°05'1 0.1
2017-Sep-14 13:34N 29°45' W 095°06'1 0.1
2017-Sep-14 06:38N 29°46' W 095°06'1 1.4
2017-Sep-14 06:15N 29°46' W 095°05'1 3.2
2017-Sep-14 05:58N 29°46' W 095°04'2 5.0
2017-Sep-14 05:30N 29°44' W 095°03'2 3.7
2017-Sep-14 05:00N 29°43' W 095°01'2 4.9
2017-Sep-14 04:30N 29°41' W 094°59'3 5.1
2017-Sep-14 04:00N 29°39' W 094°58'3 5.3
2017-Sep-14 03:30N 29°36' W 094°57'61 2.5
2017-Sep-13 03:19N 29°58' W 093°51'2 4.6
2017-Sep-13 02:49N 29°59' W 093°49'2 5.4
2017-Sep-13 02:27N 29°60' W 093°47'3 5.7
2017-Sep-13 01:56N 30°01' W 093°44'2 5.3
2017-Sep-13 01:30N 30°03' W 093°43'2 4.4
2017-Sep-13 01:00N 30°03' W 093°40'2 4.5
2017-Sep-13 00:30N 30°04' W 093°38'2 3.8
2017-Sep-13 00:00N 30°04' W 093°36'1 3.0
2017-Sep-12 23:30N 30°04' W 093°34'1 3.0
2017-Sep-12 23:00N 30°04' W 093°32'1 2.9
2017-Sep-12 22:30N 30°04' W 093°31'1 2.6
2017-Sep-12 22:00N 30°04' W 093°29'1 2.7
2017-Sep-12 21:30N 30°04' W 093°27'1 2.7
2017-Sep-12 21:01N 30°04' W 093°26'1 2.8
2017-Sep-12 20:31N 30°04' W 093°24'1 2.8
2017-Sep-12 20:01N 30°04' W 093°23'1 2.2
2017-Sep-12 19:30N 30°04' W 093°21'0 0.9
2017-Sep-12 19:01N 30°04' W 093°21'1 2.0
2017-Sep-12 18:30N 30°05' W 093°20'2 3.1
2017-Sep-12 18:01N 30°06' W 093°19'1 1.7
2017-Sep-12 17:30N 30°06' W 093°18'0 0.0
2017-Sep-12 17:00N 30°06' W 093°18'0 0.6
2017-Sep-12 16:30N 30°05' W 093°18'2 3.0
2017-Sep-12 16:01N 30°05' W 093°17'0 0.2
2017-Sep-12 15:30N 30°05' W 093°16'0 0.1
2017-Sep-12 15:01N 30°04' W 093°16'0 0.0
2017-Sep-12 14:30N 30°04' W 093°16'0 0.2
2017-Sep-12 14:01N 30°04' W 093°16'50 3.2
2017-Sep-11 22:20N 29°51' W 092°21'1 2.7
2017-Sep-11 22:00N 29°51' W 092°20'2 2.7
2017-Sep-11 21:25N 29°50' W 092°18'1 2.7
2017-Sep-11 20:59N 29°49' W 092°17'1 2.8
2017-Sep-11 20:30N 29°49' W 092°16'1 2.9
2017-Sep-11 20:00N 29°48' W 092°15'2 3.2
2017-Sep-11 19:31N 29°47' W 092°13'1 1.2
2017-Sep-11 19:01N 29°47' W 092°12'1 2.1
2017-Sep-11 18:31N 29°47' W 092°11'1 2.9
2017-Sep-11 18:00N 29°47' W 092°10'2 3.7
2017-Sep-11 17:31N 29°47' W 092°07'2 3.7
2017-Sep-11 17:01N 29°48' W 092°05'2 3.5
2017-Sep-11 16:29N 29°49' W 092°03'  
Track history (hours):
 
Tides and Currents Weather Stations Pressure Air Temp Water Temp Dewpoint Dewpoint Depression Visibility Wind Speed Wind Dir Waves Ship Positions

Corky

Owner: Gulf South Marine Transportation, Inc., New Orleans, LA. More information available from US FCC via Universal Licensing System and Coast Guard Vessel Documentation Center.

Last reported at 2017-Sep-21 09:09 UTC. Time now 2017-Sep-26 06:00 UTC.
Position N 29°50' W 091°60'.

Length 18 m; draft 3.3 m.

Type: Tow > 200 m length. MMSI: 367006780.

Date/timePositionNaut miles runAvg speedWind from/ knotsBaromVisibWave heightAir tempDewpointWater temp
2017-Sep-21 09:09N 29°50' W 091°60'1 4.3
2017-Sep-21 08:58N 29°49' W 092°01'2 4.2
2017-Sep-21 08:30N 29°49' W 092°03'2 4.0
2017-Sep-21 08:00N 29°48' W 092°05'2 3.6
2017-Sep-21 07:30N 29°47' W 092°07'2 3.3
2017-Sep-21 07:00N 29°47' W 092°09'2 4.4
2017-Sep-21 06:30N 29°47' W 092°11'2 4.0
2017-Sep-21 06:00N 29°48' W 092°13'2 4.7
2017-Sep-21 05:30N 29°48' W 092°16'3 4.0
2017-Sep-21 04:52N 29°50' W 092°18'39 3.6
2017-Sep-20 18:00N 29°56' W 093°03'1 1.4
2017-Sep-20 17:11N 29°56' W 093°04'0 0.2
2017-Sep-20 17:00N 29°56' W 093°04'0 0.1
2017-Sep-20 14:00N 29°56' W 093°04'1 2.0
2017-Sep-20 13:30N 29°56' W 093°05'1 1.5
2017-Sep-20 13:00N 29°56' W 093°06'2 3.6
2017-Sep-20 12:31N 29°56' W 093°08'2 3.5
2017-Sep-20 12:01N 29°57' W 093°10'2 3.9
2017-Sep-20 11:30N 29°58' W 093°12'2 3.6
2017-Sep-20 11:00N 29°60' W 093°13'2 3.2
2017-Sep-20 10:30N 30°01' W 093°14'1 2.2
2017-Sep-20 10:00N 30°02' W 093°15'2 3.2
2017-Sep-20 09:30N 30°03' W 093°16'1 2.9
2017-Sep-20 09:00N 30°04' W 093°16'1 3.0
2017-Sep-20 08:30N 30°05' W 093°18'1 1.8
2017-Sep-20 08:00N 30°06' W 093°18'0 0.1
2017-Sep-20 07:30N 30°06' W 093°18'2 3.3
2017-Sep-20 07:00N 30°05' W 093°20'2 4.6
2017-Sep-20 06:30N 30°04' W 093°22'2 3.1
2017-Sep-20 06:00N 30°04' W 093°24'2 4.5
2017-Sep-20 05:30N 30°04' W 093°26'2 4.3
2017-Sep-20 05:00N 30°04' W 093°29'80 3.6
2017-Sep-19 06:41N 29°30' W 094°52'1 5.3
2017-Sep-19 06:26N 29°31' W 094°53'2 5.1
2017-Sep-19 06:00N 29°33' W 094°55'2 4.9
2017-Sep-19 05:30N 29°35' W 094°56'3 5.1
2017-Sep-19 05:00N 29°37' W 094°58'3 6.0
2017-Sep-19 04:30N 29°40' W 094°59'3 5.8
2017-Sep-19 04:00N 29°42' W 095°01'3 5.0
2017-Sep-19 03:29N 29°44' W 095°03'3 1.0
2017-Sep-19 00:14N 29°46' W 095°06'0 0.2
2017-Sep-18 23:40N 29°46' W 095°06'1 3.6
2017-Sep-18 23:28N 29°46' W 095°05'3 6.6
2017-Sep-18 23:00N 29°44' W 095°08'2 2.2
2017-Sep-18 22:11N 29°45' W 095°10'1 6.1
2017-Sep-18 21:59N 29°44' W 095°09'4 0.1
2017-Sep-17 14:13N 29°46' W 095°05'1 3.1
2017-Sep-17 14:00N 29°45' W 095°04'3 4.2
2017-Sep-17 13:22N 29°44' W 095°02'1 3.4
2017-Sep-17 13:00N 29°43' W 095°01'2 4.6
2017-Sep-17 12:30N 29°41' W 094°59'3 5.2
2017-Sep-17 12:00N 29°39' W 094°58'3 5.3
2017-Sep-17 11:30N 29°36' W 094°57'  
2017-Sep-15 02:15N 29°30' W 094°52'1 5.6
2017-Sep-15 01:59N 29°31' W 094°53'3 5.4
2017-Sep-15 01:30N 29°33' W 094°55'3 5.3
2017-Sep-15 01:00N 29°35' W 094°56'3 5.3
2017-Sep-15 00:30N 29°38' W 094°58'3 5.9
2017-Sep-15 00:00N 29°40' W 094°59'3 5.8
2017-Sep-14 23:30N 29°42' W 095°01'3 5.1
2017-Sep-14 23:00N 29°44' W 095°03'3 0.5
2017-Sep-14 17:55N 29°46' W 095°05'1 0.1
2017-Sep-14 13:34N 29°45' W 095°06'1 0.1
2017-Sep-14 06:38N 29°46' W 095°06'1 1.4
2017-Sep-14 06:15N 29°46' W 095°05'1 3.2
2017-Sep-14 05:58N 29°46' W 095°04'2 5.0
2017-Sep-14 05:30N 29°44' W 095°03'2 3.7
2017-Sep-14 05:00N 29°43' W 095°01'2 4.9
2017-Sep-14 04:30N 29°41' W 094°59'3 5.1
2017-Sep-14 04:00N 29°39' W 094°58'3 5.3
2017-Sep-14 03:30N 29°36' W 094°57'61 2.5
2017-Sep-13 03:19N 29°58' W 093°51'2 4.6
2017-Sep-13 02:49N 29°59' W 093°49'2 5.4
2017-Sep-13 02:27N 29°60' W 093°47'3 5.7
2017-Sep-13 01:56N 30°01' W 093°44'2 5.3
2017-Sep-13 01:30N 30°03' W 093°43'2 4.4
2017-Sep-13 01:00N 30°03' W 093°40'2 4.5
2017-Sep-13 00:30N 30°04' W 093°38'2 3.8
2017-Sep-13 00:00N 30°04' W 093°36'1 3.0
2017-Sep-12 23:30N 30°04' W 093°34'1 3.0
2017-Sep-12 23:00N 30°04' W 093°32'1 2.9
2017-Sep-12 22:30N 30°04' W 093°31'1 2.6
2017-Sep-12 22:00N 30°04' W 093°29'1 2.7
2017-Sep-12 21:30N 30°04' W 093°27'1 2.7
2017-Sep-12 21:01N 30°04' W 093°26'1 2.8
2017-Sep-12 20:31N 30°04' W 093°24'1 2.8
2017-Sep-12 20:01N 30°04' W 093°23'1 2.2
2017-Sep-12 19:30N 30°04' W 093°21'0 0.9
2017-Sep-12 19:01N 30°04' W 093°21'1 2.0
2017-Sep-12 18:30N 30°05' W 093°20'2 3.1
2017-Sep-12 18:01N 30°06' W 093°19'1 1.7
2017-Sep-12 17:30N 30°06' W 093°18'0 0.0
2017-Sep-12 17:00N 30°06' W 093°18'0 0.6
2017-Sep-12 16:30N 30°05' W 093°18'2 3.0
2017-Sep-12 16:01N 30°05' W 093°17'0 0.2
2017-Sep-12 15:30N 30°05' W 093°16'0 0.1
2017-Sep-12 15:01N 30°04' W 093°16'0 0.0
2017-Sep-12 14:30N 30°04' W 093°16'0 0.2
2017-Sep-12 14:01N 30°04' W 093°16'50 3.2
2017-Sep-11 22:20N 29°51' W 092°21'1 2.7
2017-Sep-11 22:00N 29°51' W 092°20'2 2.7
2017-Sep-11 21:25N 29°50' W 092°18'1 2.7
2017-Sep-11 20:59N 29°49' W 092°17'1 2.8
2017-Sep-11 20:30N 29°49' W 092°16'1 2.9
2017-Sep-11 20:00N 29°48' W 092°15'2 3.2
2017-Sep-11 19:31N 29°47' W 092°13'1 1.2
2017-Sep-11 19:01N 29°47' W 092°12'1 2.1
2017-Sep-11 18:31N 29°47' W 092°11'1 2.9
2017-Sep-11 18:00N 29°47' W 092°10'2 3.7
2017-Sep-11 17:31N 29°47' W 092°07'2 3.7
2017-Sep-11 17:01N 29°48' W 092°05'2 3.5
2017-Sep-11 16:29N 29°49' W 092°03'  

Dump ship's entire track history